createdAt,value
2023-01-28T00:01:33.506Z,100.00
2023-01-28T00:24:40.778Z,100.00
2023-01-28T00:27:09.499Z,100.00
2023-01-28T00:29:37.931Z,100.00
2023-01-28T00:32:07.177Z,100.00
2023-01-28T00:34:35.461Z,100.00
2023-01-28T00:37:05.455Z,100.00
2023-01-28T00:39:33.419Z,100.00
2023-01-28T01:02:42.162Z,100.00
2023-01-28T01:05:11.202Z,100.00
2023-01-28T01:07:42.464Z,100.00
2023-01-28T01:10:16.241Z,100.00
2023-01-28T01:12:46.903Z,100.00
2023-01-28T01:15:16.645Z,100.00
2023-01-28T01:17:47.861Z,100.00
2023-01-28T01:38:34.219Z,100.00
2023-01-28T01:41:03.296Z,100.00
2023-01-28T01:44:07.133Z,100.00
2023-01-28T01:46:40.103Z,100.00
2023-01-28T01:49:23.791Z,100.00
2023-01-28T02:10:10.061Z,100.00
2023-01-28T02:12:48.163Z,100.00
2023-01-28T02:15:22.079Z,100.00
2023-01-28T02:17:51.774Z,100.00
2023-01-28T02:20:25.986Z,100.00
2023-01-28T02:23:29.131Z,100.00
2023-01-28T02:26:09.203Z,100.00
2023-01-28T02:47:49.995Z,100.00
2023-01-28T02:50:21.127Z,100.00
2023-01-28T02:53:13.402Z,100.00
2023-01-28T02:56:07.967Z,100.00
2023-01-28T02:58:55.760Z,100.00
2023-01-28T03:01:36.892Z,100.00
2023-01-28T03:04:14.722Z,100.00
2023-01-28T03:27:31.665Z,100.00
2023-01-28T03:30:26.631Z,100.00
2023-01-28T03:33:14.372Z,100.00
2023-01-28T03:36:04.594Z,100.00
2023-01-28T03:38:34.274Z,100.00
2023-01-28T03:41:04.107Z,100.00
2023-01-28T03:43:32.476Z,100.00
2023-01-28T04:03:53.080Z,100.00
2023-01-28T04:06:23.553Z,100.00
2023-01-28T04:08:59.387Z,100.00
2023-01-28T04:11:28.140Z,100.00
2023-01-28T04:13:56.249Z,100.00
2023-01-28T04:16:24.558Z,100.00
2023-01-28T04:18:53.320Z,100.00
2023-01-28T04:44:11.533Z,100.00
2023-01-28T04:46:40.711Z,100.00
2023-01-28T04:49:09.023Z,100.00
2023-01-28T04:51:39.546Z,100.00
2023-01-28T04:54:08.371Z,100.00
2023-01-28T04:56:36.412Z,100.00
2023-01-28T04:59:04.776Z,100.00
2023-01-28T05:01:33.496Z,100.00
2023-01-28T05:19:05.002Z,100.00
2023-01-28T05:21:34.230Z,100.00
2023-01-28T05:24:02.518Z,100.00
2023-01-28T05:26:30.809Z,100.00
2023-01-28T05:28:59.294Z,100.00
2023-01-28T05:31:27.274Z,100.00
2023-01-28T05:54:25.552Z,100.00
2023-01-28T05:56:55.667Z,100.00
2023-01-28T05:59:23.755Z,100.00
2023-01-28T06:01:51.811Z,100.00
2023-01-28T06:04:21.618Z,100.00
2023-01-28T06:06:49.890Z,100.00
2023-01-28T06:09:17.918Z,100.00
2023-01-28T06:11:46.799Z,100.00
2023-01-28T06:32:26.333Z,100.00
2023-01-28T06:34:54.934Z,100.00
2023-01-28T06:37:25.218Z,100.00
2023-01-28T06:39:54.533Z,100.00
2023-01-28T06:42:22.770Z,100.00
2023-01-28T06:44:50.629Z,100.00
2023-01-28T06:47:18.871Z,100.00
2023-01-28T07:07:45.640Z,100.00
2023-01-28T07:10:14.729Z,100.00
2023-01-28T07:12:45.156Z,100.00
2023-01-28T07:15:15.340Z,100.00
2023-01-28T07:17:43.288Z,100.00
2023-01-28T07:20:15.228Z,100.00
2023-01-28T07:22:46.041Z,100.00
2023-01-28T07:25:15.474Z,100.00
2023-01-28T07:43:09.740Z,100.00
2023-01-28T07:45:39.053Z,100.00
2023-01-28T07:48:10.282Z,100.00
2023-01-28T07:50:38.977Z,100.00
2023-01-28T07:53:10.835Z,100.00
2023-01-28T07:55:39.359Z,100.00
2023-01-28T07:58:08.768Z,100.00
2023-01-28T08:19:03.883Z,100.00
2023-01-28T08:21:32.707Z,100.00
2023-01-28T08:24:00.739Z,100.00
2023-01-28T08:26:28.704Z,100.00
2023-01-28T08:28:57.178Z,100.00
2023-01-28T08:31:25.238Z,100.00
2023-01-28T08:33:53.211Z,100.00
2023-01-28T08:36:21.668Z,100.00
2023-01-28T08:56:39.165Z,97.80
2023-01-28T08:59:07.827Z,97.80
2023-01-28T09:01:35.686Z,98.83
2023-01-28T09:04:04.264Z,100.00
2023-01-28T09:06:32.732Z,100.00
2023-01-28T09:09:01.386Z,100.00
2023-01-28T09:11:30.382Z,99.87
2023-01-28T09:14:07.151Z,100.00
2023-01-28T09:34:37.970Z,95.52
2023-01-28T09:37:06.667Z,95.52
2023-01-28T09:39:34.695Z,98.51
2023-01-28T09:42:21.295Z,98.94
2023-01-28T09:45:22.122Z,98.59
2023-01-28T09:47:54.016Z,98.47
2023-01-28T09:50:38.825Z,97.54
2023-01-28T10:07:27.908Z,93.89
2023-01-28T10:10:11.724Z,93.89
2023-01-28T10:12:50.312Z,95.17
2023-01-28T10:15:43.245Z,95.16
2023-01-28T10:18:17.561Z,95.80
2023-01-28T10:20:55.705Z,95.53
2023-01-28T10:43:54.514Z,92.67
2023-01-28T10:46:29.512Z,92.67
2023-01-28T10:49:18.904Z,94.21
2023-01-28T10:51:47.245Z,94.45
2023-01-28T10:54:31.289Z,95.98
2023-01-28T10:57:02.608Z,94.33
2023-01-28T11:23:39.383Z,91.86
2023-01-28T11:26:17.826Z,91.86
2023-01-28T11:28:46.914Z,93.97
2023-01-28T11:31:17.816Z,94.08
2023-01-28T11:33:59.695Z,92.09
2023-01-28T11:36:33.083Z,92.74
2023-01-28T11:39:05.679Z,93.48
2023-01-28T11:41:37.500Z,93.04
2023-01-28T11:58:38.599Z,89.54
2023-01-28T12:01:13.070Z,89.54
2023-01-28T12:04:02.978Z,93.01
2023-01-28T12:06:42.848Z,91.42
2023-01-28T12:09:18.248Z,91.89
2023-01-28T12:12:11.590Z,91.27
2023-01-28T12:35:23.489Z,90.43
2023-01-28T12:37:52.131Z,90.43
2023-01-28T12:40:23.062Z,94.57
2023-01-28T12:43:05.636Z,93.14
2023-01-28T12:45:40.805Z,94.07
2023-01-28T12:48:18.355Z,93.21
2023-01-28T12:50:55.243Z,92.60
2023-01-28T12:53:26.576Z,92.90
2023-01-28T13:14:32.159Z,91.81
2023-01-28T13:17:25.708Z,91.81
2023-01-28T13:19:54.135Z,94.53
2023-01-28T13:22:30.197Z,93.33
2023-01-28T13:25:13.123Z,92.85
2023-01-28T13:27:41.583Z,93.70
2023-01-28T13:49:43.662Z,92.03
2023-01-28T13:52:12.329Z,92.03
2023-01-28T13:55:00.823Z,94.91
2023-01-28T13:57:41.208Z,93.61
2023-01-28T14:00:13.375Z,93.52
2023-01-28T14:03:03.596Z,93.45
2023-01-28T14:05:37.686Z,94.01
2023-01-28T14:08:17.259Z,95.68
2023-01-28T14:24:40.592Z,93.06
2023-01-28T14:27:22.860Z,93.06
2023-01-28T14:30:24.432Z,95.84
2023-01-28T14:32:54.457Z,96.04
2023-01-28T14:35:34.202Z,95.71
2023-01-28T14:38:09.370Z,96.65
2023-01-28T14:40:40.062Z,97.71
2023-01-28T14:59:48.530Z,95.96
2023-01-28T15:02:23.794Z,95.96
2023-01-28T15:04:53.620Z,98.75
2023-01-28T15:07:25.355Z,98.96
2023-01-28T15:10:08.319Z,98.83
2023-01-28T15:12:40.053Z,97.80
2023-01-28T15:15:12.103Z,98.33
2023-01-28T15:33:27.607Z,96.59
2023-01-28T15:35:58.289Z,96.59
2023-01-28T15:38:29.683Z,99.11
2023-01-28T15:41:02.858Z,100.00
2023-01-28T15:43:35.200Z,99.00
2023-01-28T15:46:04.144Z,100.00
2023-01-28T15:48:35.195Z,99.42
2023-01-28T16:10:42.010Z,98.29
2023-01-28T16:13:10.675Z,98.29
2023-01-28T16:15:39.533Z,100.00
2023-01-28T16:18:07.641Z,100.00
2023-01-28T16:20:36.079Z,100.00
2023-01-28T16:23:04.561Z,100.00
2023-01-28T16:25:37.090Z,100.00
2023-01-28T16:28:20.441Z,100.00
2023-01-28T16:48:18.460Z,96.83
2023-01-28T16:50:47.265Z,96.83
2023-01-28T16:53:28.353Z,99.91
2023-01-28T16:55:57.005Z,100.00
2023-01-28T16:58:26.987Z,100.00
2023-01-28T17:00:55.025Z,100.00
2023-01-28T17:03:23.910Z,100.00
2023-01-28T17:05:52.202Z,100.00
2023-01-28T17:26:20.726Z,98.96
2023-01-28T17:28:53.739Z,98.96
2023-01-28T17:31:22.438Z,100.00
2023-01-28T17:33:55.049Z,100.00
2023-01-28T17:36:24.353Z,100.00
2023-01-28T17:38:53.356Z,100.00
2023-01-28T17:41:21.858Z,100.00
2023-01-28T18:06:58.997Z,100.00
2023-01-28T18:09:29.436Z,100.00
2023-01-28T18:11:57.408Z,100.00
2023-01-28T18:14:25.726Z,100.00
2023-01-28T18:16:54.089Z,100.00
2023-01-28T18:19:22.077Z,100.00
2023-01-28T18:21:53.355Z,100.00
2023-01-28T18:44:54.278Z,100.00
2023-01-28T18:47:22.946Z,100.00
2023-01-28T18:49:51.077Z,100.00
2023-01-28T18:52:19.154Z,100.00
2023-01-28T18:54:47.912Z,100.00
2023-01-28T18:57:15.942Z,100.00
2023-01-28T18:59:44.349Z,100.00
2023-01-28T19:02:18.403Z,100.00
2023-01-28T19:22:42.377Z,97.68
2023-01-28T19:25:11.661Z,97.68
2023-01-28T19:27:40.078Z,100.00
2023-01-28T19:30:10.288Z,100.00
2023-01-28T19:32:39.429Z,100.00
2023-01-28T19:35:07.929Z,100.00
2023-01-28T19:37:36.182Z,100.00
2023-01-28T20:03:38.679Z,97.66
2023-01-28T20:06:12.445Z,97.66
2023-01-28T20:08:41.135Z,100.00
2023-01-28T20:11:15.093Z,100.00
2023-01-28T20:13:45.397Z,100.00
2023-01-28T20:16:20.961Z,100.00
2023-01-28T20:42:18.472Z,98.62
2023-01-28T20:44:47.228Z,98.62
2023-01-28T20:47:15.449Z,100.00
2023-01-28T20:49:43.657Z,100.00
2023-01-28T20:52:11.924Z,100.00
2023-01-28T20:54:40.322Z,100.00
2023-01-28T20:57:08.500Z,100.00
2023-01-28T20:59:37.342Z,100.00
2023-01-28T21:17:21.716Z,99.66
2023-01-28T21:19:50.856Z,99.61
2023-01-28T21:22:20.302Z,100.00
2023-01-28T21:24:51.290Z,100.00
2023-01-28T21:27:19.815Z,100.00
2023-01-28T21:29:48.068Z,100.00
2023-01-28T21:32:17.758Z,100.00
2023-01-28T21:34:46.331Z,100.00
2023-01-28T21:55:10.005Z,97.95
2023-01-28T21:57:38.666Z,97.95
2023-01-28T22:00:09.521Z,100.00
2023-01-28T22:02:40.253Z,100.00
2023-01-28T22:05:08.630Z,100.00
2023-01-28T22:07:36.574Z,100.00
2023-01-28T22:10:05.387Z,100.00
2023-01-28T22:12:34.007Z,100.00
2023-01-28T22:32:43.931Z,100.00
2023-01-28T22:35:12.459Z,100.00
2023-01-28T22:37:40.444Z,100.00
2023-01-28T22:40:09.324Z,100.00
2023-01-28T22:42:38.954Z,100.00
2023-01-28T22:45:07.593Z,100.00
2023-01-28T22:47:35.671Z,100.00
2023-01-28T22:50:14.213Z,100.00
2023-01-28T23:08:36.998Z,100.00
2023-01-28T23:11:15.016Z,100.00
2023-01-28T23:14:02.511Z,100.00
2023-01-28T23:16:50.163Z,100.00
2023-01-28T23:19:36.651Z,100.00
2023-01-28T23:22:24.112Z,100.00
2023-01-28T23:24:54.380Z,100.00
2023-01-28T23:40:24.020Z,100.00
2023-01-28T23:42:54.138Z,100.00
2023-01-28T23:45:22.707Z,100.00
2023-01-28T23:47:50.680Z,100.00
2023-01-28T23:50:20.055Z,100.00
2023-01-28T23:52:49.112Z,100.00
2023-01-28T23:55:17.398Z,100.00
2023-01-28T23:57:45.813Z,100.00
